sensor_id;sensor_type;location;lat;lon;timestamp;P1;durP1;ratioP1;P2;durP2;ratioP2
78873;SDS011;68250;43.514;1.494;2024-02-14T00:01:03;4.95;;;1.40;;
78873;SDS011;68250;43.514;1.494;2024-02-14T00:03:29;5.25;;;1.30;;
78873;SDS011;68250;43.514;1.494;2024-02-14T00:05:54;3.92;;;1.02;;
78873;SDS011;68250;43.514;1.494;2024-02-14T00:08:20;4.60;;;0.98;;
78873;SDS011;68250;43.514;1.494;2024-02-14T00:10:46;8.43;;;1.50;;
78873;SDS011;68250;43.514;1.494;2024-02-14T00:13:13;3.40;;;0.80;;
78873;SDS011;68250;43.514;1.494;2024-02-14T00:15:39;3.40;;;0.80;;
78873;SDS011;68250;43.514;1.494;2024-02-14T00:18:05;3.97;;;0.80;;
78873;SDS011;68250;43.514;1.494;2024-02-14T00:20:31;6.83;;;1.10;;
78873;SDS011;68250;43.514;1.494;2024-02-14T00:22:57;3.97;;;1.10;;
78873;SDS011;68250;43.514;1.494;2024-02-14T00:25:23;4.93;;;1.40;;
78873;SDS011;68250;43.514;1.494;2024-02-14T00:27:48;4.83;;;1.20;;
78873;SDS011;68250;43.514;1.494;2024-02-14T00:30:14;5.05;;;1.08;;
78873;SDS011;68250;43.514;1.494;2024-02-14T00:32:40;5.90;;;1.27;;
78873;SDS011;68250;43.514;1.494;2024-02-14T00:35:06;3.40;;;1.10;;
78873;SDS011;68250;43.514;1.494;2024-02-14T00:37:32;6.23;;;1.20;;
78873;SDS011;68250;43.514;1.494;2024-02-14T00:39:58;3.80;;;1.00;;
78873;SDS011;68250;43.514;1.494;2024-02-14T00:42:24;4.80;;;1.10;;
78873;SDS011;68250;43.514;1.494;2024-02-14T00:44:50;5.07;;;1.20;;
78873;SDS011;68250;43.514;1.494;2024-02-14T00:47:16;3.70;;;1.20;;
78873;SDS011;68250;43.514;1.494;2024-02-14T00:49:42;6.20;;;1.23;;
78873;SDS011;68250;43.514;1.494;2024-02-14T00:52:07;5.53;;;1.33;;
78873;SDS011;68250;43.514;1.494;2024-02-14T00:54:34;6.40;;;1.40;;
78873;SDS011;68250;43.514;1.494;2024-02-14T00:57:00;6.13;;;1.10;;
78873;SDS011;68250;43.514;1.494;2024-02-14T00:59:26;5.07;;;1.33;;
78873;SDS011;68250;43.514;1.494;2024-02-14T01:01:51;4.10;;;1.10;;
78873;SDS011;68250;43.514;1.494;2024-02-14T01:04:17;5.87;;;1.20;;
78873;SDS011;68250;43.514;1.494;2024-02-14T01:06:43;6.85;;;1.15;;
78873;SDS011;68250;43.514;1.494;2024-02-14T01:09:09;4.63;;;1.10;;
78873;SDS011;68250;43.514;1.494;2024-02-14T01:11:34;6.70;;;1.20;;
78873;SDS011;68250;43.514;1.494;2024-02-14T01:14:01;4.38;;;1.17;;
78873;SDS011;68250;43.514;1.494;2024-02-14T01:16:27;5.43;;;1.13;;
78873;SDS011;68250;43.514;1.494;2024-02-14T01:18:52;10.57;;;3.17;;
78873;SDS011;68250;43.514;1.494;2024-02-14T01:21:18;8.77;;;3.67;;
78873;SDS011;68250;43.514;1.494;2024-02-14T01:23:43;4.70;;;1.70;;
78873;SDS011;68250;43.514;1.494;2024-02-14T01:26:09;6.30;;;1.77;;
78873;SDS011;68250;43.514;1.494;2024-02-14T01:28:35;21.70;;;11.93;;
78873;SDS011;68250;43.514;1.494;2024-02-14T01:31:00;11.20;;;5.33;;
78873;SDS011;68250;43.514;1.494;2024-02-14T01:33:26;4.43;;;1.70;;
78873;SDS011;68250;43.514;1.494;2024-02-14T01:35:51;4.13;;;1.20;;
78873;SDS011;68250;43.514;1.494;2024-02-14T01:38:17;5.27;;;1.37;;
78873;SDS011;68250;43.514;1.494;2024-02-14T01:40:43;4.03;;;1.08;;
78873;SDS011;68250;43.514;1.494;2024-02-14T01:43:09;5.97;;;1.30;;
78873;SDS011;68250;43.514;1.494;2024-02-14T01:45:36;4.78;;;1.50;;
78873;SDS011;68250;43.514;1.494;2024-02-14T01:48:03;6.20;;;2.03;;
78873;SDS011;68250;43.514;1.494;2024-02-14T01:50:31;18.92;;;12.77;;
78873;SDS011;68250;43.514;1.494;2024-02-14T01:53:00;11.23;;;5.57;;
78873;SDS011;68250;43.514;1.494;2024-02-14T01:55:26;6.20;;;2.30;;
78873;SDS011;68250;43.514;1.494;2024-02-14T01:57:53;4.05;;;1.50;;
78873;SDS011;68250;43.514;1.494;2024-02-14T02:00:19;4.68;;;1.90;;
78873;SDS011;68250;43.514;1.494;2024-02-14T02:02:45;5.80;;;2.60;;
78873;SDS011;68250;43.514;1.494;2024-02-14T02:05:12;9.25;;;4.32;;
78873;SDS011;68250;43.514;1.494;2024-02-14T02:07:38;4.82;;;1.80;;
78873;SDS011;68250;43.514;1.494;2024-02-14T02:10:08;5.40;;;1.58;;
78873;SDS011;68250;43.514;1.494;2024-02-14T02:12:35;4.83;;;1.87;;
78873;SDS011;68250;43.514;1.494;2024-02-14T02:15:04;5.38;;;1.77;;
78873;SDS011;68250;43.514;1.494;2024-02-14T02:17:31;4.57;;;1.70;;
78873;SDS011;68250;43.514;1.494;2024-02-14T02:19:59;4.00;;;1.58;;
78873;SDS011;68250;43.514;1.494;2024-02-14T02:22:26;5.30;;;1.77;;
78873;SDS011;68250;43.514;1.494;2024-02-14T02:24:54;5.47;;;1.80;;
78873;SDS011;68250;43.514;1.494;2024-02-14T02:27:20;6.35;;;1.95;;
78873;SDS011;68250;43.514;1.494;2024-02-14T02:29:45;7.37;;;2.00;;
78873;SDS011;68250;43.514;1.494;2024-02-14T02:32:11;7.25;;;1.77;;
78873;SDS011;68250;43.514;1.494;2024-02-14T02:34:36;6.73;;;2.43;;
78873;SDS011;68250;43.514;1.494;2024-02-14T02:37:05;5.60;;;1.88;;
78873;SDS011;68250;43.514;1.494;2024-02-14T02:39:34;6.07;;;2.42;;
78873;SDS011;68250;43.514;1.494;2024-02-14T02:42:01;7.57;;;2.92;;
78873;SDS011;68250;43.514;1.494;2024-02-14T02:44:28;10.90;;;7.50;;
78873;SDS011;68250;43.514;1.494;2024-02-14T02:46:53;9.68;;;6.03;;
78873;SDS011;68250;43.514;1.494;2024-02-14T02:49:20;15.03;;;9.93;;
78873;SDS011;68250;43.514;1.494;2024-02-14T02:51:46;12.15;;;7.13;;
78873;SDS011;68250;43.514;1.494;2024-02-14T02:54:11;12.77;;;5.72;;
78873;SDS011;68250;43.514;1.494;2024-02-14T02:56:38;15.53;;;6.60;;
78873;SDS011;68250;43.514;1.494;2024-02-14T02:59:05;21.08;;;7.53;;
78873;SDS011;68250;43.514;1.494;2024-02-14T03:01:35;24.30;;;8.77;;
78873;SDS011;68250;43.514;1.494;2024-02-14T03:04:01;31.63;;;11.05;;
78873;SDS011;68250;43.514;1.494;2024-02-14T03:06:27;32.10;;;10.43;;
78873;SDS011;68250;43.514;1.494;2024-02-14T03:08:53;39.95;;;12.07;;
78873;SDS011;68250;43.514;1.494;2024-02-14T03:11:20;28.05;;;8.63;;
78873;SDS011;68250;43.514;1.494;2024-02-14T03:13:46;24.35;;;9.18;;
78873;SDS011;68250;43.514;1.494;2024-02-14T03:16:14;17.20;;;6.15;;
78873;SDS011;68250;43.514;1.494;2024-02-14T03:18:40;13.73;;;5.60;;
78873;SDS011;68250;43.514;1.494;2024-02-14T03:21:06;14.45;;;5.05;;
78873;SDS011;68250;43.514;1.494;2024-02-14T03:23:31;20.42;;;7.50;;
78873;SDS011;68250;43.514;1.494;2024-02-14T03:25:57;20.42;;;8.90;;
78873;SDS011;68250;43.514;1.494;2024-02-14T03:28:23;17.93;;;7.70;;
78873;SDS011;68250;43.514;1.494;2024-02-14T03:30:48;15.00;;;6.95;;
78873;SDS011;68250;43.514;1.494;2024-02-14T03:33:14;16.83;;;6.67;;
78873;SDS011;68250;43.514;1.494;2024-02-14T03:35:40;14.70;;;6.30;;
78873;SDS011;68250;43.514;1.494;2024-02-14T03:38:09;15.13;;;7.88;;
78873;SDS011;68250;43.514;1.494;2024-02-14T03:40:35;17.60;;;8.80;;
78873;SDS011;68250;43.514;1.494;2024-02-14T03:43:02;18.40;;;9.20;;
78873;SDS011;68250;43.514;1.494;2024-02-14T03:45:28;15.98;;;7.93;;
78873;SDS011;68250;43.514;1.494;2024-02-14T03:47:55;15.70;;;8.03;;
78873;SDS011;68250;43.514;1.494;2024-02-14T03:50:21;15.27;;;6.93;;
78873;SDS011;68250;43.514;1.494;2024-02-14T03:52:47;12.15;;;6.28;;
78873;SDS011;68250;43.514;1.494;2024-02-14T03:55:14;8.57;;;4.68;;
78873;SDS011;68250;43.514;1.494;2024-02-14T03:57:41;10.40;;;4.70;;
78873;SDS011;68250;43.514;1.494;2024-02-14T04:00:07;11.67;;;5.43;;
78873;SDS011;68250;43.514;1.494;2024-02-14T04:02:34;9.90;;;5.30;;
78873;SDS011;68250;43.514;1.494;2024-02-14T04:05:00;9.38;;;4.43;;
78873;SDS011;68250;43.514;1.494;2024-02-14T04:07:27;8.60;;;3.97;;
78873;SDS011;68250;43.514;1.494;2024-02-14T04:09:53;11.13;;;5.43;;
78873;SDS011;68250;43.514;1.494;2024-02-14T04:12:18;12.88;;;6.43;;
78873;SDS011;68250;43.514;1.494;2024-02-14T04:14:44;8.68;;;3.42;;
78873;SDS011;68250;43.514;1.494;2024-02-14T04:17:09;6.87;;;2.93;;
78873;SDS011;68250;43.514;1.494;2024-02-14T04:19:37;5.72;;;2.40;;
78873;SDS011;68250;43.514;1.494;2024-02-14T04:22:03;8.30;;;2.40;;
78873;SDS011;68250;43.514;1.494;2024-02-14T04:24:28;6.75;;;2.75;;
78873;SDS011;68250;43.514;1.494;2024-02-14T04:26:54;4.93;;;2.42;;
78873;SDS011;68250;43.514;1.494;2024-02-14T04:29:21;6.77;;;2.50;;
78873;SDS011;68250;43.514;1.494;2024-02-14T04:31:47;5.05;;;2.47;;
78873;SDS011;68250;43.514;1.494;2024-02-14T04:34:14;8.57;;;2.70;;
78873;SDS011;68250;43.514;1.494;2024-02-14T04:36:39;7.63;;;2.40;;
78873;SDS011;68250;43.514;1.494;2024-02-14T04:39:05;5.30;;;2.50;;
78873;SDS011;68250;43.514;1.494;2024-02-14T04:41:32;6.10;;;2.53;;
78873;SDS011;68250;43.514;1.494;2024-02-14T04:44:02;4.88;;;2.30;;
78873;SDS011;68250;43.514;1.494;2024-02-14T04:46:31;6.65;;;2.33;;
78873;SDS011;68250;43.514;1.494;2024-02-14T04:48:57;5.27;;;2.20;;
78873;SDS011;68250;43.514;1.494;2024-02-14T04:51:23;5.50;;;2.17;;
78873;SDS011;68250;43.514;1.494;2024-02-14T04:53:48;6.27;;;2.60;;
78873;SDS011;68250;43.514;1.494;2024-02-14T04:56:14;5.63;;;2.70;;
78873;SDS011;68250;43.514;1.494;2024-02-14T04:58:40;6.38;;;2.55;;
78873;SDS011;68250;43.514;1.494;2024-02-14T05:01:05;5.40;;;2.37;;
78873;SDS011;68250;43.514;1.494;2024-02-14T05:03:32;5.47;;;2.22;;
78873;SDS011;68250;43.514;1.494;2024-02-14T05:05:57;5.85;;;2.50;;
78873;SDS011;68250;43.514;1.494;2024-02-14T05:08:24;5.20;;;2.40;;
78873;SDS011;68250;43.514;1.494;2024-02-14T05:10:49;5.82;;;2.63;;
78873;SDS011;68250;43.514;1.494;2024-02-14T05:13:15;9.67;;;2.90;;
78873;SDS011;68250;43.514;1.494;2024-02-14T05:15:41;7.63;;;2.90;;
78873;SDS011;68250;43.514;1.494;2024-02-14T05:18:07;6.32;;;2.35;;
78873;SDS011;68250;43.514;1.494;2024-02-14T05:20:33;6.13;;;2.67;;
78873;SDS011;68250;43.514;1.494;2024-02-14T05:22:58;6.68;;;2.50;;
78873;SDS011;68250;43.514;1.494;2024-02-14T05:25:24;6.57;;;2.47;;
78873;SDS011;68250;43.514;1.494;2024-02-14T05:27:49;7.45;;;2.60;;
78873;SDS011;68250;43.514;1.494;2024-02-14T05:30:15;6.77;;;2.63;;
78873;SDS011;68250;43.514;1.494;2024-02-14T05:32:42;5.60;;;2.40;;
78873;SDS011;68250;43.514;1.494;2024-02-14T05:35:08;6.77;;;2.50;;
78873;SDS011;68250;43.514;1.494;2024-02-14T05:37:34;7.65;;;2.40;;
78873;SDS011;68250;43.514;1.494;2024-02-14T05:40:02;7.30;;;2.38;;
78873;SDS011;68250;43.514;1.494;2024-02-14T05:42:31;5.85;;;2.25;;
78873;SDS011;68250;43.514;1.494;2024-02-14T05:44:57;5.53;;;2.10;;
78873;SDS011;68250;43.514;1.494;2024-02-14T05:47:23;6.40;;;2.38;;
78873;SDS011;68250;43.514;1.494;2024-02-14T05:49:50;6.78;;;2.60;;
78873;SDS011;68250;43.514;1.494;2024-02-14T05:52:16;8.50;;;2.50;;
78873;SDS011;68250;43.514;1.494;2024-02-14T05:54:43;6.18;;;2.30;;
78873;SDS011;68250;43.514;1.494;2024-02-14T05:57:08;6.20;;;2.30;;
78873;SDS011;68250;43.514;1.494;2024-02-14T05:59:34;7.55;;;2.40;;
78873;SDS011;68250;43.514;1.494;2024-02-14T06:02:00;8.77;;;2.47;;
78873;SDS011;68250;43.514;1.494;2024-02-14T06:04:28;9.07;;;4.03;;
78873;SDS011;68250;43.514;1.494;2024-02-14T06:06:53;36.87;;;18.27;;
78873;SDS011;68250;43.514;1.494;2024-02-14T06:09:19;76.33;;;31.77;;
78873;SDS011;68250;43.514;1.494;2024-02-14T06:11:44;31.65;;;12.93;;
78873;SDS011;68250;43.514;1.494;2024-02-14T06:14:10;12.77;;;5.53;;
78873;SDS011;68250;43.514;1.494;2024-02-14T06:16:35;6.20;;;2.60;;
78873;SDS011;68250;43.514;1.494;2024-02-14T06:19:01;4.82;;;2.22;;
78873;SDS011;68250;43.514;1.494;2024-02-14T06:21:29;5.60;;;2.20;;
78873;SDS011;68250;43.514;1.494;2024-02-14T06:23:55;7.93;;;3.27;;
78873;SDS011;68250;43.514;1.494;2024-02-14T06:26:23;8.05;;;2.78;;
78873;SDS011;68250;43.514;1.494;2024-02-14T06:28:49;5.75;;;2.20;;
78873;SDS011;68250;43.514;1.494;2024-02-14T06:31:20;18.98;;;8.05;;
78873;SDS011;68250;43.514;1.494;2024-02-14T06:33:46;19.43;;;8.27;;
78873;SDS011;68250;43.514;1.494;2024-02-14T06:36:11;12.90;;;4.22;;
78873;SDS011;68250;43.514;1.494;2024-02-14T06:38:37;26.60;;;12.17;;
78873;SDS011;68250;43.514;1.494;2024-02-14T06:41:03;30.23;;;14.50;;
78873;SDS011;68250;43.514;1.494;2024-02-14T06:43:28;131.88;;;67.63;;
78873;SDS011;68250;43.514;1.494;2024-02-14T06:45:55;77.03;;;46.40;;
78873;SDS011;68250;43.514;1.494;2024-02-14T06:48:20;28.35;;;14.90;;
78873;SDS011;68250;43.514;1.494;2024-02-14T06:50:49;14.82;;;7.13;;
78873;SDS011;68250;43.514;1.494;2024-02-14T06:53:15;10.40;;;5.50;;
78873;SDS011;68250;43.514;1.494;2024-02-14T06:55:40;9.23;;;4.03;;
78873;SDS011;68250;43.514;1.494;2024-02-14T06:58:06;27.80;;;13.50;;
78873;SDS011;68250;43.514;1.494;2024-02-14T07:00:32;21.23;;;10.18;;
78873;SDS011;68250;43.514;1.494;2024-02-14T07:02:58;27.75;;;13.15;;
78873;SDS011;68250;43.514;1.494;2024-02-14T07:05:23;12.10;;;5.55;;
78873;SDS011;68250;43.514;1.494;2024-02-14T07:07:49;10.30;;;4.60;;
78873;SDS011;68250;43.514;1.494;2024-02-14T07:10:15;8.30;;;4.53;;
78873;SDS011;68250;43.514;1.494;2024-02-14T07:12:41;12.00;;;4.10;;
78873;SDS011;68250;43.514;1.494;2024-02-14T07:15:06;7.18;;;2.97;;
78873;SDS011;68250;43.514;1.494;2024-02-14T07:17:33;6.63;;;2.33;;
78873;SDS011;68250;43.514;1.494;2024-02-14T07:19:58;5.85;;;2.13;;
78873;SDS011;68250;43.514;1.494;2024-02-14T07:22:24;14.97;;;8.37;;
78873;SDS011;68250;43.514;1.494;2024-02-14T07:24:50;23.83;;;13.77;;
78873;SDS011;68250;43.514;1.494;2024-02-14T07:27:15;21.25;;;10.77;;
78873;SDS011;68250;43.514;1.494;2024-02-14T07:29:44;37.25;;;20.77;;
78873;SDS011;68250;43.514;1.494;2024-02-14T07:32:09;117.07;;;56.70;;
78873;SDS011;68250;43.514;1.494;2024-02-14T07:34:37;101.13;;;49.47;;
78873;SDS011;68250;43.514;1.494;2024-02-14T07:37:04;46.90;;;24.33;;
78873;SDS011;68250;43.514;1.494;2024-02-14T07:39:30;24.30;;;13.30;;
78873;SDS011;68250;43.514;1.494;2024-02-14T07:41:55;12.87;;;7.00;;
78873;SDS011;68250;43.514;1.494;2024-02-14T07:44:22;10.15;;;3.47;;
78873;SDS011;68250;43.514;1.494;2024-02-14T07:46:49;19.27;;;10.43;;
78873;SDS011;68250;43.514;1.494;2024-02-14T07:49:14;48.42;;;27.67;;
78873;SDS011;68250;43.514;1.494;2024-02-14T07:51:40;14.07;;;6.82;;
78873;SDS011;68250;43.514;1.494;2024-02-14T07:54:06;6.00;;;2.57;;
78873;SDS011;68250;43.514;1.494;2024-02-14T07:56:32;5.53;;;2.10;;
78873;SDS011;68250;43.514;1.494;2024-02-14T07:58:58;6.60;;;2.50;;
78873;SDS011;68250;43.514;1.494;2024-02-14T08:01:23;5.60;;;2.33;;
78873;SDS011;68250;43.514;1.494;2024-02-14T08:03:49;6.73;;;2.97;;
78873;SDS011;68250;43.514;1.494;2024-02-14T08:06:14;8.00;;;3.45;;
78873;SDS011;68250;43.514;1.494;2024-02-14T08:08:40;10.40;;;5.40;;
78873;SDS011;68250;43.514;1.494;2024-02-14T08:11:05;14.80;;;7.90;;
78873;SDS011;68250;43.514;1.494;2024-02-14T08:13:31;14.95;;;7.72;;
78873;SDS011;68250;43.514;1.494;2024-02-14T08:15:57;18.38;;;9.30;;
78873;SDS011;68250;43.514;1.494;2024-02-14T08:18:23;18.67;;;10.95;;
78873;SDS011;68250;43.514;1.494;2024-02-14T08:20:49;19.45;;;11.70;;
78873;SDS011;68250;43.514;1.494;2024-02-14T08:23:16;15.77;;;8.57;;
78873;SDS011;68250;43.514;1.494;2024-02-14T08:25:42;16.90;;;8.48;;
78873;SDS011;68250;43.514;1.494;2024-02-14T08:28:07;17.30;;;8.73;;
78873;SDS011;68250;43.514;1.494;2024-02-14T08:30:33;13.07;;;7.15;;
78873;SDS011;68250;43.514;1.494;2024-02-14T08:32:59;14.17;;;6.57;;
78873;SDS011;68250;43.514;1.494;2024-02-14T08:35:24;16.67;;;7.78;;
78873;SDS011;68250;43.514;1.494;2024-02-14T08:37:50;20.50;;;7.90;;
78873;SDS011;68250;43.514;1.494;2024-02-14T08:40:15;16.23;;;7.38;;
78873;SDS011;68250;43.514;1.494;2024-02-14T08:42:41;16.13;;;7.65;;
78873;SDS011;68250;43.514;1.494;2024-02-14T08:45:07;16.47;;;7.73;;
78873;SDS011;68250;43.514;1.494;2024-02-14T08:47:33;13.65;;;6.97;;
78873;SDS011;68250;43.514;1.494;2024-02-14T08:49:59;14.63;;;7.30;;
78873;SDS011;68250;43.514;1.494;2024-02-14T08:52:25;14.68;;;7.63;;
78873;SDS011;68250;43.514;1.494;2024-02-14T08:54:50;14.77;;;7.93;;
78873;SDS011;68250;43.514;1.494;2024-02-14T08:57:16;14.60;;;8.25;;
78873;SDS011;68250;43.514;1.494;2024-02-14T08:59:43;16.27;;;8.10;;
78873;SDS011;68250;43.514;1.494;2024-02-14T09:02:12;16.10;;;7.53;;
78873;SDS011;68250;43.514;1.494;2024-02-14T09:04:38;14.52;;;7.90;;
78873;SDS011;68250;43.514;1.494;2024-02-14T09:07:05;13.73;;;7.57;;
78873;SDS011;68250;43.514;1.494;2024-02-14T09:09:32;13.57;;;7.65;;
78873;SDS011;68250;43.514;1.494;2024-02-14T09:11:58;14.30;;;7.80;;
78873;SDS011;68250;43.514;1.494;2024-02-14T09:14:27;15.82;;;8.20;;
78873;SDS011;68250;43.514;1.494;2024-02-14T09:16:53;15.32;;;7.20;;
78873;SDS011;68250;43.514;1.494;2024-02-14T09:19:19;17.87;;;8.13;;
78873;SDS011;68250;43.514;1.494;2024-02-14T09:21:44;13.30;;;7.60;;
78873;SDS011;68250;43.514;1.494;2024-02-14T09:24:10;13.00;;;5.93;;
78873;SDS011;68250;43.514;1.494;2024-02-14T09:26:36;12.07;;;6.15;;
78873;SDS011;68250;43.514;1.494;2024-02-14T09:29:03;10.82;;;5.57;;
78873;SDS011;68250;43.514;1.494;2024-02-14T09:31:28;10.17;;;5.63;;
78873;SDS011;68250;43.514;1.494;2024-02-14T09:33:54;11.27;;;5.85;;
78873;SDS011;68250;43.514;1.494;2024-02-14T09:36:22;13.77;;;5.72;;
78873;SDS011;68250;43.514;1.494;2024-02-14T09:38:49;12.77;;;6.05;;
78873;SDS011;68250;43.514;1.494;2024-02-14T09:43:55;11.37;;;5.57;;
78873;SDS011;68250;43.514;1.494;2024-02-14T09:46:21;11.50;;;5.70;;
78873;SDS011;68250;43.514;1.494;2024-02-14T09:48:49;13.80;;;6.30;;
78873;SDS011;68250;43.514;1.494;2024-02-14T09:51:15;11.68;;;5.70;;
78873;SDS011;68250;43.514;1.494;2024-02-14T09:53:41;11.17;;;5.73;;
78873;SDS011;68250;43.514;1.494;2024-02-14T09:56:10;10.88;;;5.38;;
78873;SDS011;68250;43.514;1.494;2024-02-14T09:58:40;10.52;;;5.25;;
78873;SDS011;68250;43.514;1.494;2024-02-14T10:01:06;10.97;;;4.93;;
78873;SDS011;68250;43.514;1.494;2024-02-14T10:03:32;10.20;;;4.95;;
78873;SDS011;68250;43.514;1.494;2024-02-14T10:05:59;9.85;;;5.18;;
78873;SDS011;68250;43.514;1.494;2024-02-14T10:08:24;9.30;;;4.90;;
78873;SDS011;68250;43.514;1.494;2024-02-14T10:10:51;8.75;;;4.50;;
78873;SDS011;68250;43.514;1.494;2024-02-14T10:13:17;9.80;;;4.85;;
78873;SDS011;68250;43.514;1.494;2024-02-14T10:15:43;12.13;;;5.33;;
78873;SDS011;68250;43.514;1.494;2024-02-14T10:18:08;10.83;;;4.93;;
78873;SDS011;68250;43.514;1.494;2024-02-14T10:20:34;9.93;;;4.80;;
78873;SDS011;68250;43.514;1.494;2024-02-14T10:23:06;9.20;;;4.50;;
78873;SDS011;68250;43.514;1.494;2024-02-14T10:25:34;11.43;;;4.53;;
78873;SDS011;68250;43.514;1.494;2024-02-14T10:28:03;8.35;;;4.60;;
78873;SDS011;68250;43.514;1.494;2024-02-14T10:30:30;8.60;;;4.13;;
78873;SDS011;68250;43.514;1.494;2024-02-14T10:32:57;10.25;;;4.45;;
78873;SDS011;68250;43.514;1.494;2024-02-14T10:35:23;8.00;;;3.83;;
78873;SDS011;68250;43.514;1.494;2024-02-14T10:37:49;7.97;;;4.20;;
78873;SDS011;68250;43.514;1.494;2024-02-14T10:40:14;8.33;;;3.90;;
78873;SDS011;68250;43.514;1.494;2024-02-14T10:42:40;7.57;;;4.03;;
78873;SDS011;68250;43.514;1.494;2024-02-14T10:45:06;8.52;;;3.65;;
78873;SDS011;68250;43.514;1.494;2024-02-14T10:47:35;8.03;;;3.60;;
78873;SDS011;68250;43.514;1.494;2024-02-14T10:50:05;6.93;;;3.53;;
78873;SDS011;68250;43.514;1.494;2024-02-14T10:52:33;8.50;;;3.83;;
78873;SDS011;68250;43.514;1.494;2024-02-14T10:55:01;11.30;;;3.90;;
78873;SDS011;68250;43.514;1.494;2024-02-14T10:57:28;7.32;;;3.25;;
78873;SDS011;68250;43.514;1.494;2024-02-14T10:59:54;9.13;;;3.67;;
78873;SDS011;68250;43.514;1.494;2024-02-14T11:02:20;8.07;;;3.30;;
78873;SDS011;68250;43.514;1.494;2024-02-14T11:04:47;6.43;;;2.85;;
78873;SDS011;68250;43.514;1.494;2024-02-14T11:07:13;8.23;;;3.40;;
78873;SDS011;68250;43.514;1.494;2024-02-14T11:09:42;6.77;;;3.10;;
78873;SDS011;68250;43.514;1.494;2024-02-14T11:12:07;5.43;;;2.80;;
78873;SDS011;68250;43.514;1.494;2024-02-14T11:14:34;6.75;;;3.03;;
78873;SDS011;68250;43.514;1.494;2024-02-14T11:17:01;6.60;;;2.80;;
78873;SDS011;68250;43.514;1.494;2024-02-14T11:19:34;6.47;;;2.50;;
78873;SDS011;68250;43.514;1.494;2024-02-14T11:22:17;5.20;;;2.28;;
78873;SDS011;68250;43.514;1.494;2024-02-14T11:24:52;4.85;;;1.70;;
78873;SDS011;68250;43.514;1.494;2024-02-14T11:27:19;6.53;;;2.30;;
78873;SDS011;68250;43.514;1.494;2024-02-14T11:29:51;4.93;;;2.20;;
78873;SDS011;68250;43.514;1.494;2024-02-14T11:32:17;5.22;;;1.48;;
78873;SDS011;68250;43.514;1.494;2024-02-14T11:34:43;5.32;;;1.40;;
78873;SDS011;68250;43.514;1.494;2024-02-14T11:37:19;5.27;;;1.90;;
78873;SDS011;68250;43.514;1.494;2024-02-14T11:39:46;4.47;;;1.35;;
78873;SDS011;68250;43.514;1.494;2024-02-14T11:42:11;5.72;;;1.33;;
78873;SDS011;68250;43.514;1.494;2024-02-14T11:44:39;4.40;;;1.30;;
78873;SDS011;68250;43.514;1.494;2024-02-14T11:47:09;4.85;;;1.40;;
78873;SDS011;68250;43.514;1.494;2024-02-14T11:49:35;4.00;;;1.20;;
78873;SDS011;68250;43.514;1.494;2024-02-14T11:52:01;4.78;;;1.17;;
78873;SDS011;68250;43.514;1.494;2024-02-14T11:54:29;4.57;;;1.17;;
78873;SDS011;68250;43.514;1.494;2024-02-14T11:56:55;4.40;;;1.20;;
78873;SDS011;68250;43.514;1.494;2024-02-14T11:59:20;5.00;;;1.03;;
78873;SDS011;68250;43.514;1.494;2024-02-14T12:01:48;5.35;;;1.00;;
78873;SDS011;68250;43.514;1.494;2024-02-14T12:04:16;4.18;;;1.20;;
78873;SDS011;68250;43.514;1.494;2024-02-14T12:06:42;4.75;;;1.35;;
78873;SDS011;68250;43.514;1.494;2024-02-14T12:09:08;4.63;;;1.20;;
78873;SDS011;68250;43.514;1.494;2024-02-14T12:11:38;5.03;;;1.15;;
78873;SDS011;68250;43.514;1.494;2024-02-14T12:14:06;5.70;;;1.13;;
78873;SDS011;68250;43.514;1.494;2024-02-14T12:16:36;4.33;;;1.03;;
78873;SDS011;68250;43.514;1.494;2024-02-14T12:19:09;3.63;;;1.10;;
78873;SDS011;68250;43.514;1.494;2024-02-14T12:21:40;3.85;;;1.15;;
78873;SDS011;68250;43.514;1.494;2024-02-14T12:24:09;6.63;;;1.10;;
78873;SDS011;68250;43.514;1.494;2024-02-14T12:26:36;4.40;;;1.33;;
78873;SDS011;68250;43.514;1.494;2024-02-14T12:29:02;4.67;;;1.20;;
78873;SDS011;68250;43.514;1.494;2024-02-14T12:31:32;3.42;;;1.00;;
78873;SDS011;68250;43.514;1.494;2024-02-14T12:33:58;4.68;;;1.30;;
78873;SDS011;68250;43.514;1.494;2024-02-14T12:36:26;4.70;;;1.00;;
78873;SDS011;68250;43.514;1.494;2024-02-14T12:38:53;4.55;;;1.20;;
78873;SDS011;68250;43.514;1.494;2024-02-14T12:41:20;4.50;;;1.00;;
78873;SDS011;68250;43.514;1.494;2024-02-14T12:43:45;4.72;;;0.90;;
78873;SDS011;68250;43.514;1.494;2024-02-14T12:46:11;4.33;;;1.10;;
78873;SDS011;68250;43.514;1.494;2024-02-14T12:48:37;5.13;;;1.10;;
78873;SDS011;68250;43.514;1.494;2024-02-14T12:51:02;5.17;;;1.17;;
78873;SDS011;68250;43.514;1.494;2024-02-14T12:53:28;4.50;;;0.80;;
78873;SDS011;68250;43.514;1.494;2024-02-14T12:55:54;4.20;;;0.90;;
78873;SDS011;68250;43.514;1.494;2024-02-14T12:58:20;4.70;;;0.90;;
78873;SDS011;68250;43.514;1.494;2024-02-14T13:00:45;3.57;;;1.00;;
78873;SDS011;68250;43.514;1.494;2024-02-14T13:03:12;4.07;;;0.68;;
78873;SDS011;68250;43.514;1.494;2024-02-14T13:05:38;3.90;;;0.70;;
78873;SDS011;68250;43.514;1.494;2024-02-14T13:08:04;3.80;;;0.60;;
78873;SDS011;68250;43.514;1.494;2024-02-14T13:10:30;2.92;;;0.50;;
78873;SDS011;68250;43.514;1.494;2024-02-14T13:12:57;6.07;;;0.70;;
78873;SDS011;68250;43.514;1.494;2024-02-14T13:15:22;4.15;;;0.70;;
78873;SDS011;68250;43.514;1.494;2024-02-14T13:17:48;3.87;;;0.50;;
78873;SDS011;68250;43.514;1.494;2024-02-14T13:20:14;4.47;;;0.73;;
78873;SDS011;68250;43.514;1.494;2024-02-14T13:22:43;3.78;;;0.50;;
78873;SDS011;68250;43.514;1.494;2024-02-14T13:25:09;3.95;;;0.40;;
78873;SDS011;68250;43.514;1.494;2024-02-14T13:27:35;4.07;;;0.50;;
78873;SDS011;68250;43.514;1.494;2024-02-14T13:30:04;3.75;;;0.60;;
78873;SDS011;68250;43.514;1.494;2024-02-14T13:32:32;4.80;;;0.70;;
78873;SDS011;68250;43.514;1.494;2024-02-14T13:34:57;5.22;;;0.70;;
78873;SDS011;68250;43.514;1.494;2024-02-14T13:37:24;3.28;;;0.60;;
78873;SDS011;68250;43.514;1.494;2024-02-14T13:39:51;4.22;;;0.55;;
78873;SDS011;68250;43.514;1.494;2024-02-14T13:42:17;2.70;;;0.40;;
78873;SDS011;68250;43.514;1.494;2024-02-14T13:44:42;3.42;;;0.40;;
78873;SDS011;68250;43.514;1.494;2024-02-14T13:47:08;4.17;;;0.60;;
78873;SDS011;68250;43.514;1.494;2024-02-14T13:49:34;3.47;;;0.50;;
78873;SDS011;68250;43.514;1.494;2024-02-14T13:51:59;3.17;;;0.60;;
78873;SDS011;68250;43.514;1.494;2024-02-14T13:54:25;5.80;;;0.73;;
78873;SDS011;68250;43.514;1.494;2024-02-14T13:56:50;3.75;;;0.80;;
78873;SDS011;68250;43.514;1.494;2024-02-14T13:59:17;3.30;;;0.65;;
78873;SDS011;68250;43.514;1.494;2024-02-14T14:01:44;3.08;;;0.80;;
78873;SDS011;68250;43.514;1.494;2024-02-14T14:04:11;4.50;;;0.60;;
78873;SDS011;68250;43.514;1.494;2024-02-14T14:06:37;2.72;;;0.50;;
78873;SDS011;68250;43.514;1.494;2024-02-14T14:09:04;4.22;;;0.70;;
78873;SDS011;68250;43.514;1.494;2024-02-14T14:11:34;3.85;;;0.60;;
78873;SDS011;68250;43.514;1.494;2024-02-14T14:13:59;3.00;;;0.70;;
78873;SDS011;68250;43.514;1.494;2024-02-14T14:23:14;3.80;;;0.55;;
78873;SDS011;68250;43.514;1.494;2024-02-14T14:25:39;3.03;;;0.50;;
78873;SDS011;68250;43.514;1.494;2024-02-14T14:28:05;3.03;;;0.60;;
78873;SDS011;68250;43.514;1.494;2024-02-14T14:30:32;3.10;;;0.53;;
78873;SDS011;68250;43.514;1.494;2024-02-14T14:32:58;2.83;;;0.40;;
78873;SDS011;68250;43.514;1.494;2024-02-14T14:35:26;4.20;;;0.60;;
78873;SDS011;68250;43.514;1.494;2024-02-14T14:37:51;3.30;;;0.43;;
78873;SDS011;68250;43.514;1.494;2024-02-14T14:40:17;3.05;;;0.50;;
78873;SDS011;68250;43.514;1.494;2024-02-14T14:42:42;3.47;;;0.50;;
78873;SDS011;68250;43.514;1.494;2024-02-14T14:45:08;2.50;;;0.40;;
78873;SDS011;68250;43.514;1.494;2024-02-14T14:47:34;3.23;;;0.47;;